createdAt,value
2023-03-11T00:02:30.969Z,100415.06
2023-03-11T00:05:03.959Z,100402.47
2023-03-11T00:07:43.060Z,100415.53
2023-03-11T00:10:23.526Z,100417.28
2023-03-11T00:12:56.629Z,100414.97
2023-03-11T00:15:30.304Z,100412.63
2023-03-11T00:18:03.652Z,100416.69
2023-03-11T00:20:40.529Z,100425.06
2023-03-11T00:23:15.473Z,100425.75
2023-03-11T00:28:49.620Z,100441.19
2023-03-11T00:31:22.814Z,100429.19
2023-03-11T00:33:57.407Z,100431.50
2023-03-11T00:36:34.012Z,100429.56
2023-03-11T00:39:07.671Z,100428.03
2023-03-11T00:41:40.270Z,100429.75
2023-03-11T00:46:59.474Z,100437.81
2023-03-11T00:49:38.496Z,100435.22
2023-03-11T00:52:16.767Z,100450.34
2023-03-11T00:54:49.312Z,100445.22
2023-03-11T00:57:21.832Z,100446.66
2023-03-11T00:59:54.754Z,100453.78
2023-03-11T01:02:27.346Z,100459.63
2023-03-11T01:05:10.801Z,100468.00
2023-03-11T01:07:43.306Z,100467.72
2023-03-11T01:10:17.407Z,100467.41
2023-03-11T01:12:50.256Z,100477.78
2023-03-11T01:15:37.069Z,100469.66
2023-03-11T01:18:09.797Z,100479.22
2023-03-11T01:20:54.558Z,100467.63
2023-03-11T01:23:27.272Z,100472.91
2023-03-11T01:26:06.220Z,100491.63
2023-03-11T01:28:38.832Z,100492.56
2023-03-11T01:31:11.779Z,100493.81
2023-03-11T01:33:44.516Z,100500.78
2023-03-11T01:36:31.065Z,100484.25
2023-03-11T01:39:04.126Z,100499.41
2023-03-11T01:41:48.846Z,100481.19
2023-03-11T01:44:22.127Z,100496.94
2023-03-11T01:47:04.053Z,100501.75
2023-03-11T01:49:41.892Z,100484.78
2023-03-11T01:52:21.449Z,100490.53
2023-03-11T01:54:54.204Z,100502.88
2023-03-11T02:00:34.811Z,100477.09
2023-03-11T02:03:24.150Z,100499.03
2023-03-11T02:06:01.199Z,100495.19
2023-03-11T02:08:34.620Z,100495.19
2023-03-11T02:11:12.337Z,100491.19
2023-03-11T02:13:55.858Z,100501.97
2023-03-11T02:16:28.760Z,100499.97
2023-03-11T02:19:49.761Z,100501.22
2023-03-11T02:22:23.369Z,100508.22
2023-03-11T02:25:12.049Z,100508.81
2023-03-11T02:27:51.383Z,100499.91
2023-03-11T02:30:27.312Z,100511.94
2023-03-11T02:33:10.846Z,100499.25
2023-03-11T02:35:43.642Z,100505.28
2023-03-11T02:38:25.813Z,100510.09
2023-03-11T02:41:01.721Z,100503.63
2023-03-11T02:43:45.168Z,100506.41
2023-03-11T02:46:19.872Z,100506.41
2023-03-11T02:48:54.369Z,100497.16
2023-03-11T02:51:26.995Z,100485.78
2023-03-11T02:54:16.390Z,100498.72
2023-03-11T02:56:48.996Z,100496.88
2023-03-11T02:59:32.778Z,100496.88
2023-03-11T03:02:05.842Z,100505.53
2023-03-11T03:04:44.529Z,100500.91
2023-03-11T03:07:17.279Z,100501.06
2023-03-11T03:10:02.583Z,100501.06
2023-03-11T03:12:35.316Z,100490.16
2023-03-11T03:15:17.142Z,100518.88
2023-03-11T03:17:51.533Z,100498.78
2023-03-11T03:20:38.893Z,100513.63
2023-03-11T03:23:11.487Z,100520.16
2023-03-11T03:25:53.445Z,100510.88
2023-03-11T03:28:25.996Z,100537.63
2023-03-11T03:31:10.424Z,100545.50
2023-03-11T03:33:43.064Z,100539.34
2023-03-11T03:36:16.316Z,100546.44
2023-03-11T03:38:48.919Z,100547.38
2023-03-11T03:41:21.882Z,100552.50
2023-03-11T03:43:55.013Z,100561.78
2023-03-11T03:46:27.561Z,100564.84
2023-03-11T03:49:00.283Z,100555.91
2023-03-11T03:51:34.639Z,100562.72
2023-03-11T03:54:07.298Z,100565.81
2023-03-11T03:56:39.896Z,100547.47
2023-03-11T03:59:13.414Z,100564.28
2023-03-11T04:01:45.936Z,100569.06
2023-03-11T04:04:18.712Z,100572.78
2023-03-11T04:06:51.332Z,100580.34
2023-03-11T04:09:24.406Z,100581.13
2023-03-11T04:11:57.096Z,100582.84
2023-03-11T04:14:29.849Z,100568.78
2023-03-11T04:17:02.400Z,100566.78
2023-03-11T04:19:35.000Z,100579.78
2023-03-11T04:22:07.813Z,100578.66
2023-03-11T04:24:40.354Z,100579.91
2023-03-11T04:27:13.125Z,100581.44
2023-03-11T04:29:45.680Z,100582.72
2023-03-11T04:32:18.528Z,100579.47
2023-03-11T04:34:51.182Z,100585.94
2023-03-11T04:37:28.780Z,100592.00
2023-03-11T04:40:01.377Z,100594.78
2023-03-11T04:42:37.166Z,100574.88
2023-03-11T04:45:11.197Z,100587.34
2023-03-11T04:47:43.967Z,100588.91
2023-03-11T04:50:18.516Z,100583.97
2023-03-11T04:52:51.261Z,100592.63
2023-03-11T04:58:20.860Z,100587.50
2023-03-11T05:00:54.235Z,100596.81
2023-03-11T05:03:26.926Z,100591.09
2023-03-11T05:06:00.414Z,100584.59
2023-03-11T05:08:33.252Z,100587.53
2023-03-11T05:11:05.808Z,100581.22
2023-03-11T05:13:44.356Z,100599.75
2023-03-11T05:16:17.175Z,100602.53
2023-03-11T05:18:49.734Z,100605.31
2023-03-11T05:21:23.012Z,100607.97
2023-03-11T05:23:55.643Z,100605.63
2023-03-11T05:26:28.255Z,100607.97
2023-03-11T05:29:00.813Z,100604.88
2023-03-11T05:31:33.944Z,100616.75
2023-03-11T05:34:17.122Z,100609.16
2023-03-11T05:36:49.722Z,100627.91
2023-03-11T05:39:29.690Z,100629.16
2023-03-11T05:42:02.300Z,100622.00
2023-03-11T05:44:35.107Z,100631.63
2023-03-11T05:47:07.717Z,100639.19
2023-03-11T05:50:02.860Z,100639.97
2023-03-11T05:52:34.030Z,100618.59
2023-03-11T05:55:15.781Z,100618.78
2023-03-11T05:57:52.532Z,100641.81
2023-03-11T06:00:31.821Z,100641.19
2023-03-11T06:03:04.346Z,100629.91
2023-03-11T06:05:37.033Z,100641.97
2023-03-11T06:08:09.580Z,100655.41
2023-03-11T06:10:43.166Z,100650.91
2023-03-11T06:13:15.976Z,100643.94
2023-03-11T06:15:48.491Z,100655.06
2023-03-11T06:18:21.377Z,100667.56
2023-03-11T06:20:58.347Z,100662.63
2023-03-11T06:23:31.461Z,100658.31
2023-03-11T06:26:06.161Z,100663.19
2023-03-11T06:28:38.690Z,100665.84
2023-03-11T06:31:17.057Z,100683.59
2023-03-11T06:33:49.827Z,100678.47
2023-03-11T06:36:24.076Z,100681.06
2023-03-11T06:39:09.782Z,100689.34
2023-03-11T06:41:42.974Z,100692.94
2023-03-11T06:44:15.585Z,100696.19
2023-03-11T06:46:48.342Z,100700.81
2023-03-11T06:49:43.188Z,100708.34
2023-03-11T06:52:14.159Z,100714.38
2023-03-11T06:54:56.061Z,100712.94
2023-03-11T06:57:29.494Z,100731.16
2023-03-11T07:00:02.268Z,100728.81
2023-03-11T07:02:34.811Z,100730.94
2023-03-11T07:05:18.007Z,100743.47
2023-03-11T07:07:55.449Z,100717.06
2023-03-11T07:10:33.363Z,100751.31
2023-03-11T07:13:06.120Z,100754.22
2023-03-11T07:16:00.317Z,100756.34
2023-03-11T07:18:42.788Z,100758.47
2023-03-11T07:21:20.028Z,100764.38
2023-03-11T07:24:00.170Z,100769.31
2023-03-11T07:26:35.412Z,100762.16
2023-03-11T07:29:08.700Z,100770.66
2023-03-11T07:31:41.572Z,100768.94
2023-03-11T07:34:14.271Z,100775.91
2023-03-11T07:36:47.007Z,100779.19
2023-03-11T07:39:20.198Z,100775.16
2023-03-11T07:42:01.830Z,100763.34
2023-03-11T07:44:34.359Z,100782.84
2023-03-11T07:47:14.141Z,100778.84
2023-03-11T07:49:47.007Z,100770.75
2023-03-11T07:52:22.896Z,100773.41
2023-03-11T07:54:55.446Z,100763.97
2023-03-11T07:57:37.285Z,100770.00
2023-03-11T08:00:12.511Z,100796.47
2023-03-11T08:02:54.493Z,100793.84
2023-03-11T08:05:27.238Z,100774.22
2023-03-11T08:08:06.145Z,100780.41
2023-03-11T08:13:26.238Z,100803.13
2023-03-11T08:16:18.457Z,100792.13
2023-03-11T08:19:08.086Z,100807.44
2023-03-11T08:21:40.850Z,100797.13
2023-03-11T08:24:19.584Z,100799.28
2023-03-11T08:26:52.167Z,100803.00
2023-03-11T08:29:25.270Z,100809.47
2023-03-11T08:31:57.843Z,100811.78
2023-03-11T08:34:30.482Z,100795.38
2023-03-11T08:37:09.146Z,100782.09
2023-03-11T08:39:56.199Z,100796.75
2023-03-11T08:42:37.717Z,100803.28
2023-03-11T08:45:11.334Z,100821.25
2023-03-11T08:47:59.028Z,100809.19
2023-03-11T08:50:34.932Z,100809.84
2023-03-11T08:53:11.429Z,100815.44
2023-03-11T08:55:59.321Z,100811.97
2023-03-11T08:58:57.009Z,100837.16
2023-03-11T09:01:42.577Z,100820.41
2023-03-11T09:04:15.222Z,100830.63
2023-03-11T09:06:50.915Z,100842.38
2023-03-11T09:09:32.518Z,100838.38
2023-03-11T09:12:05.337Z,100833.13
2023-03-11T09:14:39.605Z,100829.09
2023-03-11T09:17:12.509Z,100834.97
2023-03-11T09:19:48.916Z,100821.66
2023-03-11T09:25:11.942Z,100848.88
2023-03-11T09:27:56.782Z,100835.06
2023-03-11T09:30:41.478Z,100833.34
2023-03-11T09:33:32.174Z,100849.47
2023-03-11T09:36:21.279Z,100862.47
2023-03-11T09:39:04.014Z,100879.81
2023-03-11T09:42:01.357Z,100881.66
2023-03-11T09:45:02.560Z,100883.72
2023-03-11T09:48:26.811Z,100872.19
2023-03-11T09:51:41.029Z,100855.63
2023-03-11T09:54:23.241Z,100869.69
2023-03-11T09:57:17.887Z,100861.59
2023-03-11T10:00:57.169Z,100877.34
2023-03-11T10:03:50.043Z,100868.16
2023-03-11T10:09:40.738Z,100872.59
2023-03-11T10:16:09.946Z,100869.50
2023-03-11T10:19:21.381Z,100867.19
2023-03-11T10:22:56.709Z,100870.94
2023-03-11T10:26:17.887Z,100868.44
2023-03-11T10:29:39.737Z,100888.59
2023-03-11T10:33:03.354Z,100885.13
2023-03-11T10:35:44.902Z,100878.16
2023-03-11T10:38:33.314Z,100884.31
2023-03-11T10:41:54.576Z,100868.78
2023-03-11T10:44:40.164Z,100880.03
2023-03-11T10:47:23.163Z,100889.16
2023-03-11T10:50:19.475Z,100863.13
2023-03-11T10:54:04.537Z,100897.09
2023-03-11T10:57:15.335Z,100898.81
2023-03-11T11:00:22.170Z,100878.91
2023-03-11T11:03:39.793Z,100871.03
2023-03-11T11:06:37.872Z,100891.31
2023-03-11T11:09:20.329Z,100883.38
2023-03-11T11:12:28.058Z,100878.38
2023-03-11T11:15:30.674Z,100900.47
2023-03-11T11:19:11.918Z,100897.50
2023-03-11T11:21:54.016Z,100868.50
2023-03-11T11:24:56.853Z,100891.88
2023-03-11T11:27:33.237Z,100904.03
2023-03-11T11:30:08.995Z,100901.22
2023-03-11T11:33:43.609Z,100892.28
2023-03-11T11:36:36.033Z,100887.09
2023-03-11T11:39:21.281Z,100873.97
2023-03-11T11:42:02.132Z,100874.25
2023-03-11T11:44:35.465Z,100880.44
2023-03-11T11:47:39.427Z,100873.78
2023-03-11T11:53:30.382Z,100870.19
2023-03-11T11:56:03.843Z,100873.78
2023-03-11T11:58:48.554Z,100861.03
2023-03-11T12:02:02.578Z,100863.38
2023-03-11T12:05:08.912Z,100894.91
2023-03-11T12:11:34.861Z,100878.22
2023-03-11T12:14:53.166Z,100887.53
2023-03-11T12:17:47.557Z,100868.41
2023-03-11T12:20:49.918Z,100882.75
2023-03-11T12:24:11.239Z,100882.75
2023-03-11T12:26:49.686Z,100899.06
2023-03-11T12:29:56.441Z,100882.28
2023-03-11T12:32:44.285Z,100868.69
2023-03-11T12:35:30.228Z,100889.22
2023-03-11T12:38:40.106Z,100880.19
2023-03-11T12:41:33.552Z,100868.41
2023-03-11T12:44:46.516Z,100877.13
2023-03-11T12:47:37.160Z,100865.34
2023-03-11T12:51:02.011Z,100878.56
2023-03-11T12:53:49.669Z,100850.25
2023-03-11T12:56:56.448Z,100847.97
2023-03-11T13:00:18.006Z,100873.25
2023-03-11T13:03:08.583Z,100878.56
2023-03-11T13:06:52.570Z,100871.91
2023-03-11T13:09:31.692Z,100834.88
2023-03-11T13:12:48.843Z,100839.88
2023-03-11T13:15:21.348Z,100857.75
2023-03-11T13:18:01.784Z,100858.03
2023-03-11T13:20:48.502Z,100862.38
2023-03-11T13:23:34.867Z,100850.00
2023-03-11T13:26:39.531Z,100855.50
2023-03-11T13:30:03.995Z,100866.91
2023-03-11T13:32:48.307Z,100839.13
2023-03-11T13:35:52.607Z,100842.97
2023-03-11T13:39:31.308Z,100850.19
2023-03-11T13:42:45.780Z,100821.19
2023-03-11T13:46:53.942Z,100857.44
2023-03-11T13:50:23.485Z,100852.13
2023-03-11T13:53:09.786Z,100831.31
2023-03-11T13:55:51.899Z,100839.00
2023-03-11T13:58:33.217Z,100848.56
2023-03-11T14:01:20.913Z,100830.25
2023-03-11T14:03:53.707Z,100839.88
2023-03-11T14:06:41.433Z,100824.84
2023-03-11T14:09:23.947Z,100846.06
2023-03-11T14:12:19.587Z,100832.38
2023-03-11T14:15:07.165Z,100853.75
2023-03-11T14:17:40.018Z,100856.28
2023-03-11T14:20:17.468Z,100874.97
2023-03-11T14:22:56.842Z,100850.50
2023-03-11T14:25:44.987Z,100841.22
2023-03-11T14:28:36.721Z,100880.97
2023-03-11T14:31:29.472Z,100853.38
2023-03-11T14:34:12.845Z,100868.25
2023-03-11T14:36:59.774Z,100873.25
2023-03-11T14:39:39.132Z,100871.31
2023-03-11T14:42:41.546Z,100882.41
2023-03-11T14:45:21.455Z,100884.06
2023-03-11T14:51:49.650Z,100880.97
2023-03-11T14:54:46.834Z,100859.16
2023-03-11T14:57:46.343Z,100884.81
2023-03-11T15:01:39.692Z,100879.03
2023-03-11T15:04:44.303Z,100855.78
2023-03-11T15:07:20.565Z,100878.06
2023-03-11T15:09:55.986Z,100873.44
2023-03-11T15:13:26.160Z,100885.66
2023-03-11T15:16:37.471Z,100867.44
2023-03-11T15:19:28.281Z,100866.34
2023-03-11T15:23:07.125Z,100858.19
2023-03-11T15:25:50.625Z,100857.78
2023-03-11T15:28:46.321Z,100870.03
2023-03-11T15:31:21.571Z,100876.13
2023-03-11T15:34:18.161Z,100873.19
2023-03-11T15:37:26.644Z,100844.88
2023-03-11T15:40:35.336Z,100877.56
2023-03-11T15:43:33.945Z,100870.41
2023-03-11T15:46:11.218Z,100853.56
2023-03-11T15:48:50.058Z,100847.09
2023-03-11T15:51:22.873Z,100855.50
2023-03-11T15:54:07.220Z,100866.19
2023-03-11T15:56:48.881Z,100884.22
2023-03-11T15:59:22.584Z,100859.22
2023-03-11T16:01:55.991Z,100853.84
2023-03-11T16:04:34.967Z,100861.06
2023-03-11T16:07:08.742Z,100859.63
2023-03-11T16:09:59.583Z,100869.53
2023-03-11T16:12:42.624Z,100868.41
2023-03-11T16:15:37.972Z,100863.09
2023-03-11T16:18:11.060Z,100870.16
2023-03-11T16:20:58.714Z,100862.53
2023-03-11T16:23:51.866Z,100855.88
2023-03-11T16:26:24.906Z,100867.84
2023-03-11T16:29:16.518Z,100860.13
2023-03-11T16:31:51.608Z,100868.72
2023-03-11T16:34:24.456Z,100873.81
2023-03-11T16:36:58.302Z,100845.28
2023-03-11T16:39:33.518Z,100865.13
2023-03-11T16:42:09.088Z,100862.44
2023-03-11T16:44:41.722Z,100869.38
2023-03-11T16:47:14.338Z,100850.19
2023-03-11T16:50:02.520Z,100866.28
2023-03-11T16:52:47.897Z,100864.47
2023-03-11T16:55:20.745Z,100871.41
2023-03-11T16:57:54.749Z,100878.28
2023-03-11T17:03:17.241Z,100882.59
2023-03-11T17:05:50.920Z,100888.38
2023-03-11T17:08:35.159Z,100863.03
2023-03-11T17:11:21.804Z,100855.22
2023-03-11T17:14:16.394Z,100853.38
2023-03-11T17:16:52.684Z,100853.22
2023-03-11T17:19:26.248Z,100877.13
2023-03-11T17:22:01.494Z,100854.25
2023-03-11T17:24:34.388Z,100857.53
2023-03-11T17:27:17.180Z,100865.75
2023-03-11T17:29:55.074Z,100864.41
2023-03-11T17:32:29.445Z,100883.88
2023-03-11T17:35:08.725Z,100848.97
2023-03-11T17:37:41.308Z,100874.03
2023-03-11T17:40:13.977Z,100878.38
2023-03-11T17:42:52.700Z,100885.50
2023-03-11T17:45:31.630Z,100866.31
2023-03-11T17:48:11.240Z,100885.81
2023-03-11T17:50:46.199Z,100878.66
2023-03-11T17:53:21.113Z,100865.75
2023-03-11T17:55:59.164Z,100869.59
2023-03-11T17:58:41.137Z,100869.50
2023-03-11T18:01:20.908Z,100889.34
2023-03-11T18:03:55.082Z,100864.97
2023-03-11T18:06:36.891Z,100879.84
2023-03-11T18:09:09.745Z,100878.28
2023-03-11T18:11:51.348Z,100874.59
2023-03-11T18:14:24.041Z,100879.44
2023-03-11T18:17:23.514Z,100910.69
2023-03-11T18:20:05.818Z,100911.72
2023-03-11T18:22:40.129Z,100915.50
2023-03-11T18:25:14.916Z,100913.19
2023-03-11T18:27:47.648Z,100908.56
2023-03-11T18:30:20.411Z,100898.53
2023-03-11T18:32:56.982Z,100919.75
2023-03-11T18:38:36.894Z,100890.69
2023-03-11T18:41:27.325Z,100913.56
2023-03-11T18:44:01.325Z,100890.56
2023-03-11T18:46:37.185Z,100920.31
2023-03-11T18:51:59.855Z,100908.31
2023-03-11T18:54:32.412Z,100918.34
2023-03-11T18:57:07.947Z,100910.81
2023-03-11T18:59:52.866Z,100910.41
2023-03-11T19:02:26.313Z,100922.09
2023-03-11T19:05:11.478Z,100929.06
2023-03-11T19:07:49.494Z,100927.56
2023-03-11T19:10:22.281Z,100920.03
2023-03-11T19:12:54.933Z,100920.50
2023-03-11T19:15:27.523Z,100930.75
2023-03-11T19:18:07.067Z,100920.22
2023-03-11T19:20:40.431Z,100929.38
2023-03-11T19:23:13.145Z,100925.78
2023-03-11T19:26:00.622Z,100923.66
2023-03-11T19:28:36.131Z,100936.13
2023-03-11T19:31:08.710Z,100926.34
2023-03-11T19:33:45.579Z,100936.75
2023-03-11T19:36:18.752Z,100935.69
2023-03-11T19:38:51.382Z,100934.91
2023-03-11T19:41:23.892Z,100928.44
2023-03-11T19:43:56.623Z,100932.50
2023-03-11T19:46:37.109Z,100935.75
2023-03-11T19:49:09.665Z,100930.22
2023-03-11T19:51:56.017Z,100921.25
2023-03-11T19:54:29.043Z,100927.78
2023-03-11T19:57:02.037Z,100922.38
2023-03-11T19:59:34.886Z,100938.78
2023-03-11T20:02:11.882Z,100929.34
2023-03-11T20:04:44.513Z,100935.69
2023-03-11T20:07:27.821Z,100931.06
2023-03-11T20:10:00.528Z,100915.00
2023-03-11T20:12:36.178Z,100925.19
2023-03-11T20:15:09.773Z,100907.28
2023-03-11T20:17:54.320Z,100910.38
2023-03-11T20:20:31.167Z,100917.31
2023-03-11T20:23:10.002Z,100910.69
2023-03-11T20:25:42.617Z,100919.81
2023-03-11T20:28:27.203Z,100910.69
2023-03-11T20:30:59.888Z,100930.69
2023-03-11T20:33:58.096Z,100925.03
2023-03-11T20:36:33.234Z,100918.13
2023-03-11T20:39:09.989Z,100899.91
2023-03-11T20:42:01.174Z,100909.19
2023-03-11T20:44:53.741Z,100916.78
2023-03-11T20:47:26.375Z,100919.22
2023-03-11T20:50:02.019Z,100927.78
2023-03-11T20:52:35.984Z,100921.41
2023-03-11T20:55:18.968Z,100930.25
2023-03-11T20:57:53.952Z,100902.44
2023-03-11T21:00:35.430Z,100920.03
2023-03-11T21:03:08.331Z,100904.13
2023-03-11T21:05:53.066Z,100905.19
2023-03-11T21:08:25.738Z,100890.81
2023-03-11T21:11:02.708Z,100909.19
2023-03-11T21:13:35.939Z,100900.88
2023-03-11T21:16:23.262Z,100911.72
2023-03-11T21:18:56.658Z,100906.44
2023-03-11T21:21:41.237Z,100901.63
2023-03-11T21:24:14.538Z,100891.00
2023-03-11T21:26:48.889Z,100909.25
2023-03-11T21:29:21.577Z,100915.13
2023-03-11T21:31:54.417Z,100914.81
2023-03-11T21:34:27.127Z,100915.91
2023-03-11T21:36:59.848Z,100905.53
2023-03-11T21:39:44.683Z,100886.00
2023-03-11T21:42:17.683Z,100917.88
2023-03-11T21:45:00.452Z,100909.81
2023-03-11T21:47:33.114Z,100906.09
2023-03-11T21:50:10.328Z,100907.00
2023-03-11T21:52:43.003Z,100906.81
2023-03-11T21:55:15.814Z,100889.94
2023-03-11T21:57:48.500Z,100880.47
2023-03-11T22:00:29.671Z,100908.63
2023-03-11T22:03:02.535Z,100901.34
2023-03-11T22:08:22.016Z,100909.66
2023-03-11T22:11:03.949Z,100901.56
2023-03-11T22:13:36.580Z,100888.88
2023-03-11T22:16:21.917Z,100900.91
2023-03-11T22:18:54.693Z,100911.44
2023-03-11T22:21:35.778Z,100889.03
2023-03-11T22:24:08.655Z,100904.91
2023-03-11T22:26:41.326Z,100903.97
2023-03-11T22:29:14.015Z,100899.66
2023-03-11T22:31:46.779Z,100903.97
2023-03-11T22:34:19.591Z,100900.66
2023-03-11T22:36:52.298Z,100882.63
2023-03-11T22:39:25.193Z,100877.31
2023-03-11T22:41:57.687Z,100894.31
2023-03-11T22:44:30.397Z,100875.97
2023-03-11T22:47:03.352Z,100892.78
2023-03-11T22:49:42.808Z,100873.03
2023-03-11T22:52:16.101Z,100892.81
2023-03-11T22:54:48.913Z,100892.19
2023-03-11T22:57:21.510Z,100891.59
2023-03-11T22:59:53.983Z,100876.72
2023-03-11T23:02:32.544Z,100884.16
2023-03-11T23:05:05.913Z,100884.75
2023-03-11T23:07:48.436Z,100878.56
2023-03-11T23:10:44.478Z,100884.16
2023-03-11T23:13:22.963Z,100867.44
2023-03-11T23:16:08.486Z,100855.69
2023-03-11T23:18:55.787Z,100866.53
2023-03-11T23:21:47.027Z,100869.34
2023-03-11T23:24:23.685Z,100866.28
2023-03-11T23:27:05.852Z,100864.72
2023-03-11T23:29:38.844Z,100869.34
2023-03-11T23:32:12.587Z,100861.53
2023-03-11T23:34:48.095Z,100859.81
2023-03-11T23:37:20.889Z,100857.19
2023-03-11T23:40:07.538Z,100841.06
2023-03-11T23:42:55.467Z,100860.88
2023-03-11T23:45:28.005Z,100862.28
2023-03-11T23:48:12.790Z,100853.44
2023-03-11T23:50:58.090Z,100867.53
2023-03-11T23:53:45.975Z,100856.22
2023-03-11T23:56:38.773Z,100849.53
2023-03-11T23:59:14.578Z,100850.97
